Shell, Wyoming
Current Conditions -  °F | °C
As of 5:53 PM on Saturday 25 Oct 2014 (Local Time) from KGEY Reporting Station
Clear Clear  
Wind Chill: 76°   Ceiling: Unl
Heat Index: 76°   Visibility: 10mi
Dew Point: 20°   Wind: 7mph
Humidity: 12%   Direction: 140°SE
Pressure: 29.77"   Gusts: NA
Location:  44.54°N, 107.78°W
Report Text: KGEY 252353Z AUTO 14006KT 10SM CLR 24/M07 A2977 RMK AO2 SLP068 T02441067 10267 20133 56027
Loading
Personal Weather Stations






























Interactive Weather Map
Tropical Storm Tracking
New forecast layout! Learn more

10-Day Weather Forecast

Advertisements
Track Severe Weather on mobile